Time;durP1;ratioP1;P1;durP2;ratioP2;P2;SDS_P1;SDS_P2;PMS_P1;PMS_P2;Temp;Humidity;BMP_temperature;BMP_pressure;BME280_temperature;BME280_humidity;BME280_pressure;Samples;Min_cycle;Max_cycle;Signal;HPM_P1;HPM_P2
2021/08/12 00:01:17;;;;;;;13.85;11.95;;;;;;;20.39;54.25;100215.59;6042801;23;20098;-82
2021/08/12 00:03:45;;;;;;;12.95;11.52;;;;;;;20.43;54.21;100230.38;6042917;23;20454;-82
2021/08/12 00:06:15;;;;;;;13.00;11.32;;;;;;;20.39;54.64;100226.28;6042728;23;20102;-82
2021/08/12 00:08:42;;;;;;;13.75;11.93;;;;;;;20.38;54.38;100223.75;6043101;23;20054;-82
2021/08/12 00:11:20;;;;;;;12.40;11.05;;;;;;;20.33;54.59;100226.00;6042872;23;20105;-82
2021/08/12 00:13:47;;;;;;;13.85;11.35;;;;;;;20.35;53.92;100226.69;6067946;23;20110;-82
2021/08/12 00:16:20;;;;;;;12.77;11.43;;;;;;;20.31;55.43;100226.16;6041508;23;20094;-82
2021/08/12 00:18:52;;;;;;;16.30;10.55;;;;;;;20.33;54.21;100221.50;6037631;23;20059;-82
2021/08/12 00:21:29;;;;;;;12.90;11.50;;;;;;;20.30;55.51;100224.47;6038528;23;20027;-82
2021/08/12 00:23:59;;;;;;;12.82;11.35;;;;;;;20.33;55.08;100221.50;6037838;23;20759;-82
2021/08/12 00:26:31;;;;;;;16.52;12.80;;;;;;;20.32;55.34;100225.16;6037914;23;20027;-82
2021/08/12 00:28:58;;;;;;;12.68;10.90;;;;;;;20.36;54.96;100223.03;6038266;23;20031;-82
2021/08/12 00:31:33;;;;;;;14.80;12.15;;;;;;;20.34;54.98;100217.84;6039160;23;20098;-82
2021/08/12 00:34:00;;;;;;;12.95;11.25;;;;;;;20.39;54.68;100220.94;6038282;23;20443;-82
2021/08/12 00:36:27;;;;;;;13.82;11.82;;;;;;;20.42;54.22;100219.81;6037909;23;20103;-82
2021/08/12 00:38:54;;;;;;;17.75;13.57;;;;;;;20.46;54.60;100225.72;6037578;23;20027;-82
2021/08/12 00:41:40;;;;;;;17.25;13.10;;;;;;;20.43;54.66;100225.03;6038002;23;20063;-82
2021/08/12 00:44:07;;;;;;;15.27;12.23;;;;;;;20.51;54.25;100223.47;6037894;23;20054;-82
2021/08/12 00:47:04;;;;;;;15.52;13.65;;;;;;;20.50;54.93;100229.81;6038161;23;20073;-82
2021/08/12 00:49:31;;;;;;;14.07;11.85;;;;;;;20.58;54.74;100224.59;6037813;23;20062;-82
2021/08/12 00:52:02;;;;;;;15.15;11.00;;;;;;;20.57;55.29;100221.06;6039930;23;20118;-82
2021/08/12 00:54:29;;;;;;;14.73;12.50;;;;;;;20.60;54.84;100225.31;6039320;23;20026;-82
2021/08/12 00:57:01;;;;;;;13.40;11.77;;;;;;;20.61;55.07;100226.13;6039570;23;20102;-82
2021/08/12 00:59:33;;;;;;;16.23;13.18;;;;;;;20.62;55.37;100220.66;6039939;23;20121;-82
2021/08/12 01:02:27;;;;;;;14.38;12.25;;;;;;;20.61;54.23;100218.13;6039391;23;20102;-82
2021/08/12 01:04:54;;;;;;;14.32;11.77;;;;;;;20.66;54.72;100210.50;6039491;23;20049;-82
2021/08/12 01:07:21;;;;;;;12.30;10.93;;;;;;;20.66;54.68;100210.50;6039549;23;20102;-82
2021/08/12 01:10:11;;;;;;;15.52;12.02;;;;;;;20.68;54.81;100213.91;6039567;23;20066;-82
2021/08/12 01:13:01;;;;;;;13.80;12.35;;;;;;;20.62;55.25;100212.63;6039304;23;20073;-82
2021/08/12 01:15:34;;;;;;;15.02;11.90;;;;;;;20.66;55.60;100207.81;6039390;23;20055;-82
2021/08/12 01:18:14;;;;;;;12.90;11.52;;;;;;;20.64;55.70;100207.97;6035562;23;20528;-82
2021/08/12 01:20:44;;;;;;;13.50;10.88;;;;;;;20.68;54.99;100208.53;6039222;23;20067;-82
2021/08/12 01:23:14;;;;;;;16.77;12.05;;;;;;;20.67;55.50;100207.69;6040622;23;20028;-82
2021/08/12 01:25:43;;;;;;;14.95;11.27;;;;;;;20.68;55.65;100216.56;6039100;23;20077;-82
2021/08/12 01:28:37;;;;;;;15.68;12.85;;;;;;;20.63;54.78;100208.13;6039423;23;20102;-82
2021/08/12 01:31:20;;;;;;;14.25;12.70;;;;;;;20.66;54.61;100213.19;6039415;23;20074;-82
2021/08/12 01:34:08;;;;;;;14.05;11.52;;;;;;;20.64;55.52;100216.00;6039037;23;20102;-82
2021/08/12 01:36:40;;;;;;;12.73;11.27;;;;;;;20.64;55.53;100205.28;6039433;23;20051;-82
2021/08/12 01:39:11;;;;;;;13.75;11.52;;;;;;;20.64;55.73;100202.63;6039183;23;20110;-82
2021/08/12 01:41:38;;;;;;;15.32;12.25;;;;;;;20.64;55.44;100197.25;6039473;23;20027;-81
2021/08/12 01:44:06;;;;;;;16.05;11.98;;;;;;;20.63;54.81;100200.09;6038990;23;20467;-81
2021/08/12 01:46:37;;;;;;;13.27;11.75;;;;;;;20.60;55.93;100195.88;6039385;23;20102;-81
2021/08/12 01:49:04;;;;;;;13.05;11.07;;;;;;;20.59;55.31;100199.53;6039696;23;20414;-81
2021/08/12 01:51:37;;;;;;;13.88;12.18;;;;;;;20.55;56.23;100200.81;6039047;23;20106;-81
2021/08/12 01:54:06;;;;;;;15.73;12.13;;;;;;;20.53;55.66;100197.44;6039032;23;20090;-81
2021/08/12 01:56:37;;;;;;;13.48;12.05;;;;;;;20.50;55.95;100209.25;6039337;23;20395;-81
2021/08/12 01:59:06;;;;;;;11.68;10.43;;;;;;;20.46;55.52;100205.19;6039268;23;20078;-81
2021/08/12 02:01:33;;;;;;;12.50;10.75;;;;;;;20.42;55.43;100201.91;6038342;23;20094;-81
2021/08/12 02:04:01;;;;;;;13.77;11.32;;;;;;;20.37;55.73;100209.53;6038814;23;20064;-81
2021/08/12 02:06:35;;;;;;;14.43;12.38;;;;;;;20.32;56.59;100206.44;6039157;23;20031;-81
2021/08/12 02:09:03;;;;;;;14.40;12.73;;;;;;;20.32;56.17;100201.09;6039351;23;20034;-81
2021/08/12 02:11:35;;;;;;;13.20;10.60;;;;;;;20.27;56.09;100198.84;6038904;23;20055;-81
2021/08/12 02:14:03;;;;;;;15.15;12.50;;;;;;;20.26;55.77;100204.34;6039039;23;20023;-81
2021/08/12 02:16:31;;;;;;;15.63;11.07;;;;;;;20.22;55.74;100197.59;6039400;23;20023;-81
2021/08/12 02:18:59;;;;;;;12.98;10.40;;;;;;;20.18;55.51;100195.19;6038649;23;20079;-80
2021/08/12 02:21:41;;;;;;;13.68;11.35;;;;;;;20.12;56.18;100192.22;6039150;23;20501;-82
2021/08/12 02:24:15;;;;;;;13.30;11.40;;;;;;;20.11;56.55;100190.53;6040016;23;20090;-82
2021/08/12 02:27:02;;;;;;;14.50;11.68;;;;;;;20.06;56.20;100193.63;6038621;23;20106;-82
2021/08/12 02:29:30;;;;;;;15.98;12.02;;;;;;;20.10;56.17;100183.47;6039243;23;20101;-82
2021/08/12 02:32:00;;;;;;;14.10;11.45;;;;;;;20.06;56.83;100182.94;6038957;23;20391;-82
2021/08/12 02:34:29;;;;;;;14.77;11.90;;;;;;;20.04;56.59;100180.38;6038434;23;20098;-82
2021/08/12 02:37:01;;;;;;;12.88;11.20;;;;;;;20.02;56.60;100184.19;6038698;23;20110;-80
2021/08/12 02:39:29;;;;;;;11.48;9.02;;;;;;;20.02;56.23;100178.84;6040032;23;20058;-81
2021/08/12 02:41:58;;;;;;;12.93;11.52;;;;;;;19.99;56.94;100179.13;6038897;23;20054;-81
2021/08/12 02:44:26;;;;;;;15.05;11.55;;;;;;;19.99;56.40;100179.97;6038703;23;20406;-81
2021/08/12 02:46:54;;;;;;;14.20;11.57;;;;;;;19.97;56.61;100179.25;6038400;23;20034;-81
2021/08/12 02:49:22;;;;;;;13.40;10.38;;;;;;;19.96;56.36;100182.06;6038918;23;20031;-81
2021/08/12 02:51:50;;;;;;;13.88;11.25;;;;;;;19.92;56.54;100176.97;6037968;23;20102;-81
2021/08/12 02:54:19;;;;;;;12.68;10.60;;;;;;;19.91;56.30;100171.78;6037315;23;20102;-81
2021/08/12 02:56:48;;;;;;;11.80;10.18;;;;;;;19.87;57.13;100168.53;6038361;23;20105;-81
2021/08/12 02:59:16;;;;;;;12.52;10.45;;;;;;;19.86;56.52;100161.50;6038437;23;20051;-81
2021/08/12 03:01:44;;;;;;;13.23;10.20;;;;;;;19.84;56.69;100158.13;6038214;23;20102;-81
2021/08/12 03:04:11;;;;;;;16.45;11.63;;;;;;;19.82;56.37;100162.78;6038584;23;20031;-81
2021/08/12 03:06:40;;;;;;;13.18;11.27;;;;;;;19.78;57.52;100169.38;6038385;23;20102;-81
2021/08/12 03:09:08;;;;;;;12.20;10.90;;;;;;;19.75;56.85;100161.63;6038812;23;20440;-81
2021/08/12 03:11:36;;;;;;;11.43;10.02;;;;;;;19.72;56.78;100165.41;6038196;23;20027;-81
2021/08/12 03:14:03;;;;;;;13.40;10.35;;;;;;;19.71;57.26;100173.56;6037982;23;20058;-81
2021/08/12 03:16:32;;;;;;;14.30;11.52;;;;;;;19.66;57.00;100174.81;6038132;23;20098;-81
2021/08/12 03:18:59;;;;;;;14.73;11.23;;;;;;;19.65;56.73;100174.94;6038169;23;20106;-81
2021/08/12 03:21:25;;;;;;;13.60;11.13;;;;;;;19.65;57.11;100169.59;6039556;23;20102;-81
2021/08/12 03:23:56;;;;;;;13.38;10.35;;;;;;;19.63;57.68;100168.91;6037786;23;20106;-80
2021/08/12 03:26:23;;;;;;;13.35;10.38;;;;;;;19.64;57.44;100167.94;6038253;23;20058;-82
2021/08/12 03:28:51;;;;;;;10.43;8.95;;;;;;;19.63;57.21;100163.56;6038456;23;20470;-82
2021/08/12 03:31:18;;;;;;;11.35;9.07;;;;;;;19.62;57.39;100157.38;6038237;23;20063;-82
2021/08/12 03:33:45;;;;;;;12.85;9.32;;;;;;;19.62;57.58;100165.38;6038249;23;20354;-82
2021/08/12 03:36:12;;;;;;;11.32;8.90;;;;;;;19.63;57.42;100169.75;6038226;23;20457;-82
2021/08/12 03:38:40;;;;;;;10.40;8.95;;;;;;;19.63;58.13;100161.72;6038061;23;20038;-82
2021/08/12 03:41:07;;;;;;;11.93;9.40;;;;;;;19.66;57.61;100160.59;6038178;23;20062;-81
2021/08/12 03:43:38;;;;;;;10.65;8.73;;;;;;;19.66;58.44;100164.13;6037829;23;20110;-81
2021/08/12 03:46:05;;;;;;;12.88;9.52;;;;;;;19.69;58.06;100156.84;6038009;23;20101;-81
2021/08/12 03:48:33;;;;;;;9.48;7.75;;;;;;;19.69;58.00;100159.50;6038081;23;20027;-81
2021/08/12 03:51:00;;;;;;;10.07;8.13;;;;;;;19.71;57.64;100152.19;6038042;23;20054;-81
2021/08/12 03:53:28;;;;;;;10.63;7.93;;;;;;;19.71;58.00;100153.06;6037842;23;20023;-81
2021/08/12 03:55:59;;;;;;;13.40;9.80;;;;;;;19.72;57.63;100153.88;6037618;23;20101;-81
2021/08/12 03:58:44;;;;;;;9.73;8.63;;;;;;;19.66;58.24;100164.13;6037979;23;20027;-82
2021/08/12 04:01:11;;;;;;;9.27;7.93;;;;;;;19.72;57.89;100160.06;6038433;23;20102;-82
2021/08/12 04:03:42;;;;;;;9.27;8.18;;;;;;;19.70;58.54;100169.22;6037912;23;20031;-82
2021/08/12 04:06:09;;;;;;;11.18;9.07;;;;;;;19.72;58.02;100172.56;6039436;23;20070;-82
2021/08/12 04:08:38;;;;;;;11.10;9.05;;;;;;;19.70;58.62;100163.88;6038088;23;20463;-82
2021/08/12 04:11:06;;;;;;;9.95;8.70;;;;;;;19.70;57.92;100172.69;6038169;23;20058;-82
2021/08/12 04:13:32;;;;;;;11.15;9.07;;;;;;;19.71;58.45;100178.91;6037796;23;20063;-82
2021/08/12 04:15:59;;;;;;;10.35;9.27;;;;;;;19.70;58.38;100175.38;6037641;23;20059;-82
2021/08/12 04:18:26;;;;;;;12.23;9.70;;;;;;;19.69;58.39;100167.53;6040642;23;20023;-82
2021/08/12 04:20:53;;;;;;;12.35;9.25;;;;;;;19.67;58.22;100162.31;6042787;23;20062;-82
2021/08/12 04:23:34;;;;;;;10.43;9.25;;;;;;;19.60;58.62;100171.84;6043123;23;20375;-82
2021/08/12 04:26:01;;;;;;;12.88;9.77;;;;;;;19.61;58.19;100169.03;6044311;23;20097;-82
2021/08/12 04:28:46;;;;;;;13.07;10.68;;;;;;;19.58;57.85;100171.97;6044611;23;20369;-82
2021/08/12 04:31:14;;;;;;;11.88;9.73;;;;;;;19.56;58.19;100178.44;6069769;23;20062;-82
2021/08/12 04:33:41;;;;;;;13.35;10.45;;;;;;;19.53;58.25;100175.06;6044945;23;20081;-82
2021/08/12 04:36:19;;;;;;;12.80;10.93;;;;;;;19.49;58.83;100167.47;6044851;23;20069;-82
2021/08/12 04:38:46;;;;;;;12.40;9.65;;;;;;;19.51;58.07;100163.66;6044540;23;20082;-82
2021/08/12 04:41:18;;;;;;;13.35;10.35;;;;;;;19.50;59.02;100163.81;6044483;23;20035;-82
2021/08/12 04:43:44;;;;;;;13.85;10.60;;;;;;;19.52;58.74;100168.03;6044215;23;20101;-82
2021/08/12 04:46:14;;;;;;;11.25;10.05;;;;;;;19.51;59.03;100169.00;6044631;23;20027;-82
2021/08/12 04:48:41;;;;;;;11.68;9.80;;;;;;;19.53;59.13;100177.75;6044386;23;20027;-82
2021/08/12 04:51:09;;;;;;;12.07;10.18;;;;;;;19.55;59.23;100179.44;6044616;23;20027;-82
2021/08/12 04:53:36;;;;;;;13.70;10.23;;;;;;;19.57;58.89;100177.44;6044471;23;20109;-82
2021/08/12 04:56:04;;;;;;;14.27;9.77;;;;;;;19.59;59.26;100178.19;6044798;23;20050;-82
2021/08/12 04:58:31;;;;;;;11.73;9.77;;;;;;;19.60;59.13;100178.03;6044836;23;20399;-82
2021/08/12 05:00:59;;;;;;;11.95;9.73;;;;;;;19.61;59.45;100185.06;6044308;23;20038;-82
2021/08/12 05:03:26;;;;;;;11.35;9.98;;;;;;;19.63;59.24;100187.59;6070079;23;20102;-82
2021/08/12 05:06:14;;;;;;;13.73;10.98;;;;;;;19.60;59.82;100188.72;6043853;23;20101;-82
2021/08/12 05:08:43;;;;;;;12.57;9.13;;;;;;;19.63;59.17;100188.44;6044253;23;20093;-82
2021/08/12 05:11:13;;;;;;;12.82;10.20;;;;;;;19.62;59.73;100199.28;6044740;23;20078;-82
2021/08/12 05:13:40;;;;;;;12.20;9.90;;;;;;;19.62;59.09;100189.41;6044587;23;20350;-82
2021/08/12 05:16:32;;;;;;;11.57;9.55;;;;;;;19.57;60.10;100199.66;6044549;23;20466;-82
2021/08/12 05:19:01;;;;;;;10.13;8.88;;;;;;;19.61;59.60;100201.09;6039142;23;20102;-82
2021/08/12 05:21:27;;;;;;;10.75;9.23;;;;;;;19.63;59.17;100195.63;6040658;23;20066;-82
2021/08/12 05:23:54;;;;;;;11.98;8.45;;;;;;;19.63;59.22;100196.44;6039122;23;20098;-82
2021/08/12 05:26:25;;;;;;;11.02;9.25;;;;;;;19.63;59.97;100188.44;6039321;23;20102;-82
2021/08/12 05:28:53;;;;;;;11.20;9.02;;;;;;;19.69;58.93;100188.91;6039737;23;20485;-82
2021/08/12 05:31:22;;;;;;;12.10;9.52;;;;;;;19.73;58.92;100198.31;6039542;23;20398;-82
2021/08/12 05:33:49;;;;;;;11.40;8.85;;;;;;;19.79;58.88;100193.28;6039314;23;20037;-82
2021/08/12 05:36:16;;;;;;;11.77;9.30;;;;;;;19.86;58.86;100182.88;6039018;23;20059;-82
2021/08/12 05:38:43;;;;;;;10.30;8.55;;;;;;;19.95;58.66;100183.03;6039322;23;20102;-85
2021/08/12 05:41:13;;;;;;;14.27;9.25;;;;;;;20.04;58.73;100190.25;6039269;23;20491;-86
2021/08/12 05:43:39;;;;;;;10.88;9.00;;;;;;;20.17;58.50;100195.31;6038851;23;20079;-86
2021/08/12 05:46:21;;;;;;;12.77;8.38;;;;;;;20.22;58.16;100190.38;6039228;23;20094;-87
2021/08/12 05:48:48;;;;;;;11.80;9.23;;;;;;;20.36;58.08;100190.94;6039748;23;20523;-86
2021/08/12 05:54:39;;;;;;;10.23;8.20;;;;;;;20.58;57.57;100184.47;6040767;23;20063;-87
2021/08/12 05:57:18;;;;;;;11.38;8.32;;;;;;;20.64;57.48;100181.22;6040346;23;20059;-87
2021/08/12 05:59:45;;;;;;;19.45;8.52;;;;;;;20.75;57.60;100177.53;6041165;23;20473;-87
2021/08/12 06:02:45;;;;;;;9.73;8.50;;;;;;;20.80;57.51;100175.31;6038962;23;20102;-85
2021/08/12 06:05:12;;;;;;;10.00;8.35;;;;;;;20.95;57.12;100185.56;6039017;23;20023;-87
2021/08/12 06:07:43;;;;;;;10.02;7.78;;;;;;;20.99;57.25;100184.28;6040513;23;20098;-88
2021/08/12 06:10:10;;;;;;;8.80;7.82;;;;;;;21.07;57.09;100184.41;6038524;23;20026;-87
2021/08/12 06:12:53;;;;;;;9.30;7.68;;;;;;;21.10;57.47;100188.63;6038647;23;20107;-86
2021/08/12 06:15:21;;;;;;;10.07;8.35;;;;;;;21.20;57.13;100191.28;6038918;23;20343;-88
2021/08/12 06:18:23;;;;;;;9.43;7.50;;;;;;;21.20;56.94;100199.31;6038966;23;20527;-88
2021/08/12 06:20:50;;;;;;;9.48;7.28;;;;;;;21.28;56.44;100193.22;6038656;23;20058;-87
2021/08/12 06:23:18;;;;;;;8.98;7.30;;;;;;;21.29;56.47;100203.78;6038606;23;20106;-88
2021/08/12 06:25:45;;;;;;;9.90;7.60;;;;;;;21.31;56.37;100201.78;6038940;23;20099;-87
2021/08/12 06:28:12;;;;;;;8.23;7.20;;;;;;;21.32;56.31;100205.31;6038420;23;20038;-87
2021/08/12 06:30:39;;;;;;;9.85;7.97;;;;;;;21.34;56.29;100203.31;6038883;23;20490;-88
2021/08/12 06:33:07;;;;;;;8.63;6.88;;;;;;;21.33;56.17;100204.31;6039642;23;20081;-87
2021/08/12 06:35:35;;;;;;;8.63;7.07;;;;;;;21.34;56.01;100203.31;6038612;23;20493;-88
2021/08/12 06:38:07;;;;;;;11.98;7.30;;;;;;;21.32;55.98;100187.44;6039099;23;20027;-88
2021/08/12 06:40:34;;;;;;;7.85;6.70;;;;;;;21.35;55.97;100191.63;6038519;23;20031;-88
2021/08/12 06:43:05;;;;;;;9.70;7.53;;;;;;;21.33;55.94;100196.28;6038515;23;20028;-88
2021/08/12 06:45:31;;;;;;;8.45;7.15;;;;;;;21.36;55.87;100185.28;6038362;23;20081;-88
2021/08/12 06:48:03;;;;;;;9.45;7.03;;;;;;;21.36;55.68;100190.66;6038697;23;20023;-88
2021/08/12 06:50:31;;;;;;;12.40;7.78;;;;;;;21.39;55.87;100179.66;6038816;23;20098;-88
2021/08/12 06:52:58;;;;;;;8.50;6.68;;;;;;;21.43;55.95;100194.44;6038224;23;20111;-88
2021/08/12 06:55:24;;;;;;;9.30;7.40;;;;;;;21.46;55.89;100202.13;6038038;23;20070;-88
2021/08/12 06:57:51;;;;;;;9.88;7.85;;;;;;;21.50;55.70;100201.84;6038146;23;20027;-88
2021/08/12 07:00:20;;;;;;;8.18;6.65;;;;;;;21.53;55.86;100204.25;6038598;23;20350;-88
2021/08/12 07:02:48;;;;;;;10.05;7.13;;;;;;;21.58;55.66;100204.63;6038076;23;20062;-87
2021/08/12 07:05:16;;;;;;;9.98;7.05;;;;;;;21.61;55.80;100212.38;6038349;23;20054;-82
2021/08/12 07:07:53;;;;;;;8.20;6.72;;;;;;;21.62;55.86;100208.72;6038089;23;20041;-82
2021/08/12 07:10:21;;;;;;;11.15;7.30;;;;;;;21.71;55.47;100215.00;6038218;23;20031;-82
2021/08/12 07:13:11;;;;;;;10.48;7.65;;;;;;;21.70;55.21;100208.81;6038297;23;20098;-82
2021/08/12 07:15:38;;;;;;;8.93;7.70;;;;;;;21.80;55.05;100206.13;6038085;23;20027;-82
2021/08/12 07:18:16;;;;;;;9.90;8.10;;;;;;;21.81;55.21;100210.47;6038616;23;20024;-82
2021/08/12 07:20:44;;;;;;;9.93;6.90;;;;;;;21.90;55.14;100213.25;6038218;23;20438;-82
2021/08/12 07:23:18;;;;;;;9.20;6.90;;;;;;;21.91;55.58;100210.41;6038111;23;20062;-82
2021/08/12 07:25:45;;;;;;;7.72;6.45;;;;;;;22.00;55.56;100214.88;6037790;23;20090;-82
2021/08/12 07:28:17;;;;;;;11.60;7.15;;;;;;;22.04;55.07;100217.22;6039399;23;20111;-82
2021/08/12 07:30:44;;;;;;;11.57;6.70;;;;;;;22.13;55.36;100219.84;6040103;23;20470;-82
2021/08/12 07:33:11;;;;;;;9.57;7.07;;;;;;;22.19;55.24;100213.03;6038303;23;20485;-82
2021/08/12 07:35:38;;;;;;;9.02;6.78;;;;;;;22.26;55.03;100219.47;6038113;23;20515;-82
2021/08/12 07:38:07;;;;;;;7.80;6.50;;;;;;;22.33;54.88;100216.19;6037949;23;20073;-82
2021/08/12 07:40:33;;;;;;;7.57;6.78;;;;;;;22.41;55.15;100216.25;6038076;23;20069;-82
2021/08/12 07:43:02;;;;;;;8.68;7.07;;;;;;;22.48;55.15;100224.53;6039728;23;20102;-82
2021/08/12 07:45:29;;;;;;;8.40;6.88;;;;;;;22.57;54.77;100212.06;6037966;23;20476;-82
2021/08/12 07:47:57;;;;;;;8.13;6.47;;;;;;;22.64;54.90;100211.28;6037893;23;20065;-82
2021/08/12 07:50:24;;;;;;;9.65;6.45;;;;;;;22.73;54.73;100220.22;6039914;23;20510;-82
2021/08/12 07:52:54;;;;;;;7.80;5.57;;;;;;;22.84;54.10;100218.31;6037941;23;20063;-82
2021/08/12 07:55:22;;;;;;;6.82;5.07;;;;;;;22.90;54.30;100212.31;6037767;23;20091;-82
2021/08/12 07:57:50;;;;;;;9.35;5.70;;;;;;;22.99;54.10;100218.59;6037836;23;20105;-82
2021/08/12 08:00:17;;;;;;;7.45;5.13;;;;;;;23.08;54.42;100222.16;6037310;23;20102;-82
2021/08/12 08:02:48;;;;;;;7.75;6.45;;;;;;;23.14;53.65;100214.28;6037700;23;20118;-82
2021/08/12 08:05:21;;;;;;;10.13;6.17;;;;;;;23.22;53.42;100218.88;6037915;23;20023;-88
2021/08/12 08:07:49;;;;;;;6.85;5.57;;;;;;;23.31;53.80;100219.75;6038234;23;20455;-88
2021/08/12 08:10:18;;;;;;;9.75;4.97;;;;;;;23.36;53.03;100213.97;6037464;23;20024;-88
2021/08/12 08:12:45;;;;;;;7.40;5.30;;;;;;;23.42;52.89;100215.97;6037779;23;20118;-88
2021/08/12 08:15:14;;;;;;;7.20;5.47;;;;;;;23.48;52.91;100220.72;6037945;23;20023;-88
2021/08/12 08:17:58;;;;;;;7.28;5.88;;;;;;;23.54;52.74;100224.59;5960328;24;20348;-85
2021/08/12 08:20:24;;;;;;;8.73;6.00;;;;;;;23.59;52.50;100222.28;5956536;24;20500;-84
2021/08/12 08:22:52;;;;;;;7.07;5.65;;;;;;;23.63;52.29;100218.25;5957235;24;20439;-84
2021/08/12 08:25:19;;;;;;;7.63;5.25;;;;;;;23.68;52.25;100213.25;5956697;24;20503;-84
2021/08/12 08:27:46;;;;;;;5.70;5.03;;;;;;;23.74;52.21;100213.59;5957139;24;20420;-78
2021/08/12 08:30:25;;;;;;;8.57;5.63;;;;;;;23.77;52.61;100219.47;5980765;24;20032;-78
2021/08/12 08:32:53;;;;;;;6.50;5.10;;;;;;;23.84;51.87;100216.16;5957878;24;20472;-78
2021/08/12 08:35:20;;;;;;;6.35;4.40;;;;;;;23.89;52.06;100213.81;5968660;23;20082;-79
2021/08/12 08:37:47;;;;;;;8.77;4.88;;;;;;;23.94;52.18;100217.69;6037573;23;20027;-79
2021/08/12 08:40:14;;;;;;;6.38;5.40;;;;;;;23.99;51.67;100221.75;6039182;23;20459;-79
2021/08/12 08:42:42;;;;;;;7.38;5.30;;;;;;;24.03;51.19;100212.34;6039387;23;20038;-79
2021/08/12 08:45:10;;;;;;;5.32;4.50;;;;;;;24.07;50.92;100206.44;6038353;23;20081;-77
2021/08/12 08:47:40;;;;;;;5.13;4.60;;;;;;;24.11;50.47;100217.75;6038627;23;20459;-77
2021/08/12 08:50:10;;;;;;;6.47;4.30;;;;;;;24.16;50.76;100211.88;6037951;23;20094;-77
2021/08/12 08:52:37;;;;;;;5.60;4.40;;;;;;;24.22;50.56;100205.00;6037613;23;20077;-80
2021/08/12 08:55:04;;;;;;;4.72;3.78;;;;;;;24.28;50.84;100207.88;6037364;23;20080;-80
2021/08/12 08:57:34;;;;;;;5.60;4.82;;;;;;;24.33;50.67;100208.19;6038171;23;20417;-78
2021/08/12 09:00:02;;;;;;;6.35;4.60;;;;;;;24.40;50.25;100205.69;6037849;23;20029;-81
2021/08/12 09:02:29;;;;;;;5.38;4.05;;;;;;;24.48;50.33;100206.69;6038001;23;20070;-80
2021/08/12 09:04:56;;;;;;;7.55;4.40;;;;;;;24.55;50.02;100203.16;6037794;23;20023;-88
2021/08/12 09:07:24;;;;;;;7.28;4.53;;;;;;;24.63;50.38;100205.00;6037209;23;20106;-89
2021/08/12 09:09:51;;;;;;;8.40;4.72;;;;;;;24.71;50.09;100212.25;6037840;23;20094;-89
2021/08/12 09:12:18;;;;;;;5.38;4.05;;;;;;;24.79;50.71;100204.16;6038854;23;20035;-82
2021/08/12 09:14:45;;;;;;;6.60;4.80;;;;;;;24.85;49.55;100198.13;6039295;23;20401;-82
2021/08/12 09:17:26;;;;;;;5.95;5.07;;;;;;;24.88;49.34;100207.69;6039365;23;20074;-82
2021/08/12 09:20:14;;;;;;;4.50;4.00;;;;;;;24.95;49.91;100205.16;6039440;23;20332;-81
2021/08/12 09:23:02;;;;;;;6.43;4.45;;;;;;;25.00;49.85;100210.88;6040136;23;20478;-80
2021/08/12 09:25:36;;;;;;;6.28;5.22;;;;;;;25.10;49.20;100210.69;6039148;23;20025;-81
2021/08/12 09:28:29;;;;;;;6.22;5.63;;;;;;;25.14;49.13;100211.19;6039378;23;20074;-88
2021/08/12 09:31:08;;;;;;;7.72;5.68;;;;;;;25.23;49.32;100204.78;6039141;23;20034;-88
2021/08/12 09:33:53;;;;;;;8.30;5.88;;;;;;;25.29;48.54;100204.06;6039058;23;20058;-89
2021/08/12 09:36:49;;;;;;;6.70;5.78;;;;;;;25.35;49.68;100202.53;6039093;23;20062;-88
2021/08/12 09:39:23;;;;;;;8.80;7.18;;;;;;;25.46;50.83;100206.72;6039606;23;20360;-88
2021/08/12 09:41:54;;;;;;;12.48;8.38;;;;;;;25.56;49.50;100212.75;6038891;23;20106;-89
2021/08/12 09:44:52;;;;;;;9.43;7.65;;;;;;;25.62;51.43;100213.91;6038823;23;20059;-88
2021/08/12 09:47:19;;;;;;;8.90;7.13;;;;;;;25.76;49.82;100210.47;6037750;23;20066;-88
2021/08/12 09:49:59;;;;;;;8.32;6.97;;;;;;;25.82;49.90;100218.88;6038866;23;20027;-89
2021/08/12 09:52:34;;;;;;;12.07;8.43;;;;;;;25.88;48.96;100213.63;6039280;23;20484;-88
2021/08/12 09:55:07;;;;;;;10.55;8.10;;;;;;;25.98;51.13;100212.56;6039168;23;20027;-88
2021/08/12 09:57:44;;;;;;;13.20;8.55;;;;;;;26.05;49.36;100210.81;6039266;23;20050;-88
2021/08/12 10:00:12;;;;;;;10.68;8.18;;;;;;;26.17;48.96;100215.78;6039276;23;20351;-89
2021/08/12 10:02:40;;;;;;;9.30;7.78;;;;;;;26.25;49.70;100218.44;6038650;23;20098;-88
2021/08/12 10:05:11;;;;;;;10.70;8.52;;;;;;;26.31;48.45;100223.13;6038535;23;20032;-88
2021/08/12 10:07:40;;;;;;;11.68;9.00;;;;;;;26.39;48.75;100227.66;6038563;23;20094;-88
2021/08/12 10:10:17;;;;;;;12.15;8.65;;;;;;;26.46;49.66;100225.06;6038814;23;20107;-89
2021/08/12 10:12:50;;;;;;;9.77;8.18;;;;;;;26.56;49.46;100216.69;6038711;23;20066;-89
2021/08/12 10:15:29;;;;;;;8.65;7.57;;;;;;;26.61;48.57;100225.94;6031683;23;20054;-88
2021/08/12 10:18:00;;;;;;;10.10;7.50;;;;;;;26.73;48.53;100220.09;6039723;23;20031;-81
2021/08/12 10:20:33;;;;;;;8.95;7.43;;;;;;;26.81;48.02;100220.03;6039391;23;20023;-81
2021/08/12 10:23:15;;;;;;;8.50;7.22;;;;;;;26.86;47.97;100217.63;6038854;23;20034;-81
2021/08/12 10:25:47;;;;;;;8.73;7.83;;;;;;;26.95;47.75;100223.81;6038678;23;20090;-82
2021/08/12 10:28:18;;;;;;;9.82;8.32;;;;;;;27.01;47.85;100223.06;6039187;23;20098;-82
2021/08/12 10:30:46;;;;;;;8.25;7.40;;;;;;;27.10;47.87;100231.91;6038885;23;20031;-82
2021/08/12 10:33:14;;;;;;;10.43;8.30;;;;;;;27.17;47.85;100224.75;6038743;23;20031;-83
2021/08/12 10:35:41;;;;;;;9.77;7.85;;;;;;;27.27;48.03;100221.78;6038861;23;20459;-83
2021/08/12 10:38:09;;;;;;;8.68;7.72;;;;;;;27.36;47.70;100219.81;6038652;23;20078;-82
2021/08/12 10:40:42;;;;;;;9.75;7.50;;;;;;;27.49;46.74;100221.00;6039210;23;20099;-82
2021/08/12 10:43:17;;;;;;;8.30;6.43;;;;;;;27.62;47.00;100214.97;6038896;23;20062;-82
2021/08/12 10:45:54;;;;;;;8.85;7.30;;;;;;;27.72;46.33;100218.22;6039906;23;20102;-82
2021/08/12 10:48:21;;;;;;;9.35;7.63;;;;;;;27.86;46.45;100211.09;6039040;23;20447;-83
2021/08/12 10:51:12;;;;;;;7.65;6.60;;;;;;;27.96;46.60;100216.22;6038597;23;20098;-83
2021/08/12 10:53:43;;;;;;;7.80;6.45;;;;;;;28.12;44.56;100219.69;6039166;23;20396;-81
2021/08/12 10:56:13;;;;;;;6.97;6.28;;;;;;;28.26;44.54;100210.72;6038887;23;20444;-81
2021/08/12 10:58:44;;;;;;;9.73;6.07;;;;;;;28.46;46.69;100213.59;6039253;23;20111;-82
2021/08/12 11:01:37;;;;;;;6.50;5.78;;;;;;;28.70;46.02;100214.19;6038918;23;20094;-83
2021/08/12 11:04:07;;;;;;;6.68;5.65;;;;;;;29.11;45.56;100215.34;6022949;23;20079;-83
2021/08/12 11:06:38;;;;;;;8.10;5.65;;;;;;;29.53;45.25;100211.84;6038607;23;20090;-83
2021/08/12 11:09:08;;;;;;;5.60;5.10;;;;;;;30.01;44.48;100208.22;6038273;23;20102;-83
2021/08/12 11:11:35;;;;;;;5.93;4.43;;;;;;;30.50;43.48;100208.09;6039663;23;20332;-83
2021/08/12 11:14:05;;;;;;;5.45;4.90;;;;;;;30.92;41.09;100202.47;6038069;23;20058;-83
2021/08/12 11:16:41;;;;;;;5.03;4.53;;;;;;;31.29;42.02;100210.09;6038348;23;20055;-83
2021/08/12 11:19:21;;;;;;;6.45;4.85;;;;;;;31.72;41.23;100197.81;6038487;23;20447;-83
2021/08/12 11:21:48;;;;;;;5.75;4.68;;;;;;;32.19;41.65;100198.59;6038146;23;20023;-83
2021/08/12 11:24:24;;;;;;;10.45;4.95;;;;;;;32.63;40.44;100207.69;6037913;23;20113;-83
2021/08/12 11:26:51;;;;;;;6.07;5.18;;;;;;;33.01;38.64;100194.16;6039933;23;20343;-83
2021/08/12 11:29:36;;;;;;;4.95;4.43;;;;;;;33.22;38.75;100195.59;6038183;23;20066;-83
2021/08/12 11:32:10;;;;;;;7.43;5.15;;;;;;;33.41;37.42;100190.94;6038089;23;20026;-83
2021/08/12 11:35:00;;;;;;;5.50;4.63;;;;;;;33.49;37.48;100188.97;6038186;23;20410;-83
2021/08/12 11:37:30;;;;;;;7.15;4.88;;;;;;;33.64;36.35;100186.69;6038514;23;20058;-83
2021/08/12 11:40:13;;;;;;;10.27;4.32;;;;;;;33.79;37.07;100188.19;6037920;23;20062;-83